Time;durP1;ratioP1;P1;durP2;ratioP2;P2;SDS_P1;SDS_P2;PMS_P1;PMS_P2;Temp;Humidity;BMP_temperature;BMP_pressure;BME280_temperature;BME280_humidity;BME280_pressure;Samples;Min_cycle;Max_cycle;Signal;HPM_P1;HPM_P2
2022/07/30 00:01:47;;;;;;;10.80;8.82;;;16.90;84.80;;;;;;5095820;28;20081;-78
2022/07/30 00:04:13;;;;;;;9.95;8.88;;;16.90;85.00;;;;;;5112543;28;20421;-75
2022/07/30 00:06:39;;;;;;;14.02;9.13;;;16.90;84.90;;;;;;5112212;28;20437;-76
2022/07/30 00:09:05;;;;;;;11.45;10.23;;;16.80;84.90;;;;;;5061954;28;20040;-74
2022/07/30 00:11:30;;;;;;;9.63;8.40;;;16.80;85.00;;;;;;5112620;28;20370;-78
2022/07/30 00:13:56;;;;;;;11.25;8.90;;;16.80;84.80;;;;;;5078500;28;20399;-80
2022/07/30 00:16:22;;;;;;;10.25;9.13;;;16.80;84.80;;;;;;5095363;28;20048;-75
2022/07/30 00:18:47;;;;;;;11.30;9.68;;;16.80;85.00;;;;;;5112163;28;20394;-78
2022/07/30 00:21:13;;;;;;;11.15;8.18;;;16.80;85.10;;;;;;5112070;28;20058;-76
2022/07/30 00:23:39;;;;;;;10.60;8.82;;;16.90;85.00;;;;;;5112157;28;20067;-76
2022/07/30 00:26:05;;;;;;;10.75;9.00;;;16.80;84.90;;;;;;5078207;28;20035;-76
2022/07/30 00:28:30;;;;;;;8.75;7.78;;;16.70;84.90;;;;;;5112170;28;20134;-77
2022/07/30 00:30:56;;;;;;;8.70;7.68;;;16.70;84.70;;;;;;5111950;28;20051;-76
2022/07/30 00:33:22;;;;;;;9.10;8.23;;;16.70;84.70;;;;;;5111983;28;20039;-76
2022/07/30 00:35:47;;;;;;;9.90;8.93;;;16.70;84.60;;;;;;5061699;28;20097;-75
2022/07/30 00:38:13;;;;;;;11.88;7.85;;;16.70;84.60;;;;;;5078119;28;20502;-75
2022/07/30 00:40:40;;;;;;;8.45;7.65;;;16.60;84.80;;;;;;5111995;28;20043;-75
2022/07/30 00:43:06;;;;;;;13.63;9.27;;;16.60;84.90;;;;;;5078067;28;20047;-75
2022/07/30 00:45:33;;;;;;;9.95;8.95;;;16.60;85.10;;;;;;5111894;28;20044;-76
2022/07/30 00:48:00;;;;;;;11.27;8.82;;;16.50;85.10;;;;;;5112029;28;20499;-75
2022/07/30 00:50:26;;;;;;;9.05;7.53;;;16.50;85.00;;;;;;5095168;28;20092;-75
2022/07/30 00:52:52;;;;;;;11.95;7.38;;;16.40;85.00;;;;;;5078917;28;20039;-76
2022/07/30 00:55:17;;;;;;;6.20;5.68;;;16.40;85.10;;;;;;5082074;28;20075;-75
2022/07/30 00:57:44;;;;;;;6.20;4.97;;;16.40;84.90;;;;;;5098791;28;20072;-76
2022/07/30 01:00:13;;;;;;;5.03;4.53;;;16.40;84.90;;;;;;5098955;28;20050;-75
2022/07/30 01:02:39;;;;;;;4.97;4.40;;;16.30;84.80;;;;;;5115930;28;20071;-75
2022/07/30 01:05:05;;;;;;;5.30;4.65;;;16.20;84.70;;;;;;5115997;28;20476;-76
2022/07/30 01:07:31;;;;;;;5.00;4.60;;;16.20;84.60;;;;;;5081896;28;20391;-77
2022/07/30 01:09:57;;;;;;;5.70;4.90;;;16.20;84.60;;;;;;5082138;28;20040;-76
2022/07/30 01:12:25;;;;;;;4.07;3.47;;;16.10;84.40;;;;;;5081891;28;20035;-76
2022/07/30 01:14:52;;;;;;;4.18;3.40;;;16.00;84.40;;;;;;5098844;28;20044;-75
2022/07/30 01:17:18;;;;;;;4.68;3.78;;;16.00;84.30;;;;;;5115624;28;20169;-76
2022/07/30 01:19:47;;;;;;;4.00;3.60;;;15.80;84.30;;;;;;5115519;28;20515;-76
2022/07/30 01:22:25;;;;;;;4.90;4.13;;;15.80;84.50;;;;;;5115848;28;20044;-74
2022/07/30 01:25:06;;;;;;;5.18;4.57;;;15.70;84.70;;;;;;5115439;28;20096;-77
2022/07/30 01:27:35;;;;;;;6.22;4.93;;;15.70;84.70;;;;;;5115759;28;20031;-75
2022/07/30 01:30:04;;;;;;;9.45;7.65;;;15.70;84.60;;;;;;5115102;28;20160;-75
2022/07/30 01:32:32;;;;;;;9.35;6.18;;;15.60;84.70;;;;;;5115331;28;20083;-75
2022/07/30 01:35:01;;;;;;;4.70;4.30;;;15.70;85.00;;;;;;5115299;28;20492;-76
2022/07/30 01:37:29;;;;;;;4.43;4.03;;;15.60;85.50;;;;;;5115132;28;20043;-75
2022/07/30 01:39:55;;;;;;;5.75;4.00;;;15.40;85.20;;;;;;5115267;28;20076;-76
2022/07/30 01:42:24;;;;;;;4.95;3.80;;;15.30;85.40;;;;;;5081606;28;20451;-76
2022/07/30 01:44:50;;;;;;;4.47;4.03;;;15.10;86.20;;;;;;5115020;28;20075;-75
2022/07/30 01:47:17;;;;;;;16.25;5.38;;;15.00;86.60;;;;;;5115338;28;20035;-77
2022/07/30 01:49:46;;;;;;;14.40;6.63;;;15.00;86.50;;;;;;5115007;28;20487;-76
2022/07/30 01:52:13;;;;;;;7.10;6.13;;;14.80;86.60;;;;;;5114847;28;20044;-76
2022/07/30 01:54:42;;;;;;;10.77;7.22;;;14.70;86.70;;;;;;5114930;28;20046;-74
2022/07/30 01:57:09;;;;;;;6.60;6.00;;;14.70;87.30;;;;;;5115050;28;20054;-73
2022/07/30 01:59:37;;;;;;;6.72;6.03;;;14.60;87.30;;;;;;5114720;28;20495;-75
2022/07/30 02:02:03;;;;;;;8.23;7.40;;;14.60;87.40;;;;;;5115053;28;20039;-75
2022/07/30 02:04:29;;;;;;;7.20;6.50;;;14.70;87.50;;;;;;5114009;28;20433;-76
2022/07/30 02:06:59;;;;;;;8.55;7.75;;;14.60;87.60;;;;;;5080822;28;20118;-75
2022/07/30 02:09:32;;;;;;;8.75;7.95;;;14.70;87.60;;;;;;5114903;28;20047;-75
2022/07/30 02:14:59;;;;;;;10.15;7.22;;;14.70;87.80;;;;;;5114440;28;20052;-76
2022/07/30 02:17:29;;;;;;;7.82;7.03;;;14.80;87.70;;;;;;5114474;28;20130;-75
2022/07/30 02:19:58;;;;;;;8.13;7.32;;;14.80;87.60;;;;;;5080504;28;20035;-76
2022/07/30 02:22:26;;;;;;;8.05;7.05;;;14.80;87.60;;;;;;5080408;28;20035;-75
2022/07/30 02:24:54;;;;;;;9.10;7.95;;;14.80;87.60;;;;;;5114580;28;20421;-76
2022/07/30 02:27:32;;;;;;;8.20;7.40;;;14.80;87.50;;;;;;5080577;28;20040;-76
2022/07/30 02:30:00;;;;;;;9.27;7.10;;;14.80;87.70;;;;;;5073473;28;20052;-75
2022/07/30 02:32:32;;;;;;;7.65;6.95;;;14.80;87.50;;;;;;5073575;28;20044;-77
2022/07/30 02:35:02;;;;;;;8.80;7.80;;;14.80;87.50;;;;;;5090308;28;20048;-74
2022/07/30 02:37:29;;;;;;;13.57;8.50;;;14.80;87.40;;;;;;5090202;28;20098;-77
2022/07/30 02:39:55;;;;;;;9.85;8.75;;;14.80;87.40;;;;;;5073666;28;20382;-76
2022/07/30 02:42:23;;;;;;;8.82;7.93;;;14.80;87.60;;;;;;5056748;28;20480;-77
2022/07/30 02:44:51;;;;;;;9.48;8.07;;;14.80;87.50;;;;;;5090157;28;20040;-75
2022/07/30 02:47:20;;;;;;;10.88;8.90;;;14.80;87.50;;;;;;5073565;28;20416;-77
2022/07/30 02:49:48;;;;;;;13.63;9.13;;;14.80;87.60;;;;;;5073150;28;20051;-74
2022/07/30 02:52:15;;;;;;;10.15;9.15;;;14.70;87.60;;;;;;5090001;28;20048;-75
2022/07/30 02:54:42;;;;;;;10.63;9.25;;;14.80;87.50;;;;;;5089980;28;20122;-74
2022/07/30 02:57:09;;;;;;;9.73;8.90;;;14.80;87.80;;;;;;5089971;28;20618;-74
2022/07/30 02:59:38;;;;;;;9.43;8.50;;;14.70;87.70;;;;;;5072870;28;20068;-76
2022/07/30 03:02:06;;;;;;;9.57;8.52;;;14.70;87.60;;;;;;5089859;28;20128;-76
2022/07/30 03:04:32;;;;;;;12.48;9.55;;;14.80;87.70;;;;;;5056291;28;20040;-74
2022/07/30 03:06:59;;;;;;;10.23;9.00;;;14.80;87.70;;;;;;5072727;28;20500;-76
2022/07/30 03:09:26;;;;;;;11.05;9.85;;;14.70;87.50;;;;;;5089673;28;20044;-76
2022/07/30 03:11:54;;;;;;;10.05;9.05;;;14.80;87.50;;;;;;5073015;28;20067;-75
2022/07/30 03:14:20;;;;;;;7.75;5.80;;;14.80;87.50;;;;;;5072594;28;20046;-76
2022/07/30 03:16:50;;;;;;;9.73;7.10;;;14.70;87.40;;;;;;5071574;28;20497;-76
2022/07/30 03:19:19;;;;;;;10.43;9.35;;;14.70;87.40;;;;;;5089428;28;20040;-74
2022/07/30 03:21:45;;;;;;;9.73;8.65;;;14.70;87.40;;;;;;5072815;28;20123;-76
2022/07/30 03:24:12;;;;;;;12.75;11.18;;;14.70;87.40;;;;;;5056181;28;20476;-74
2022/07/30 03:26:40;;;;;;;15.18;11.60;;;14.80;87.50;;;;;;5072369;28;20546;-76
2022/07/30 03:29:07;;;;;;;15.85;10.95;;;14.80;87.70;;;;;;5072648;28;20102;-74
2022/07/30 03:31:34;;;;;;;12.75;9.55;;;14.80;87.50;;;;;;5091309;28;20483;-75
2022/07/30 03:34:01;;;;;;;10.68;9.57;;;14.90;87.50;;;;;;5075931;28;20047;-76
2022/07/30 03:36:28;;;;;;;11.70;9.65;;;14.90;87.60;;;;;;5092465;28;20044;-78
2022/07/30 03:38:54;;;;;;;12.10;9.45;;;14.90;87.70;;;;;;5092451;28;20516;-75
2022/07/30 03:41:21;;;;;;;12.82;10.27;;;14.80;87.70;;;;;;5109338;28;20044;-74
2022/07/30 03:43:48;;;;;;;11.73;10.52;;;14.80;87.70;;;;;;5092369;28;20471;-75
2022/07/30 03:46:15;;;;;;;11.50;10.30;;;14.80;87.60;;;;;;5092186;28;20040;-75
2022/07/30 03:48:41;;;;;;;13.50;10.98;;;14.80;87.60;;;;;;5075258;28;20093;-77
2022/07/30 03:51:10;;;;;;;11.77;8.80;;;14.80;87.90;;;;;;5092176;28;20127;-78
2022/07/30 03:53:38;;;;;;;12.68;9.68;;;14.80;87.80;;;;;;5109079;28;20403;-75
2022/07/30 03:56:05;;;;;;;13.02;9.45;;;14.80;87.80;;;;;;5091935;28;20178;-74
2022/07/30 03:58:32;;;;;;;12.13;9.57;;;14.70;87.90;;;;;;5091893;28;20093;-75
2022/07/30 04:00:58;;;;;;;13.13;9.50;;;14.70;87.90;;;;;;5092035;28;20486;-75
2022/07/30 04:03:29;;;;;;;11.50;8.23;;;14.70;87.90;;;;;;5092385;28;20040;-75
2022/07/30 04:05:55;;;;;;;14.40;9.57;;;14.60;88.20;;;;;;5108892;28;20689;-75
2022/07/30 04:08:20;;;;;;;25.00;10.32;;;14.60;88.20;;;;;;5092027;28;20123;-75
2022/07/30 04:10:47;;;;;;;31.83;12.23;;;14.60;88.30;;;;;;5091962;28;20050;-74
2022/07/30 04:13:13;;;;;;;32.85;11.10;;;14.50;88.60;;;;;;5075176;28;20055;-76
2022/07/30 04:15:48;;;;;;;22.13;10.30;;;14.50;88.60;;;;;;5092303;28;20044;-76
2022/07/30 04:18:17;;;;;;;29.85;9.02;;;14.50;88.60;;;;;;5092043;28;20044;-74
2022/07/30 04:20:46;;;;;;;36.50;11.60;;;14.60;88.70;;;;;;5092153;28;20133;-77
2022/07/30 04:23:13;;;;;;;28.42;8.82;;;14.60;88.80;;;;;;5092057;28;20044;-75
2022/07/30 04:25:41;;;;;;;17.77;9.52;;;14.70;89.10;;;;;;5091767;28;20048;-78
2022/07/30 04:28:08;;;;;;;10.63;7.05;;;14.70;89.00;;;;;;5108391;28;20044;-77
2022/07/30 04:30:34;;;;;;;14.13;8.95;;;14.80;89.30;;;;;;5091532;28;20044;-78
2022/07/30 04:33:03;;;;;;;11.90;7.63;;;14.80;89.30;;;;;;5108671;28;20541;-75
2022/07/30 04:35:31;;;;;;;10.93;7.70;;;14.80;89.60;;;;;;5108578;28;20040;-76
2022/07/30 04:37:59;;;;;;;10.27;6.80;;;14.80;89.50;;;;;;5108791;28;20484;-76
2022/07/30 04:40:24;;;;;;;10.57;6.43;;;14.80;89.70;;;;;;5108652;28;20095;-76
2022/07/30 04:42:50;;;;;;;10.05;7.22;;;14.90;89.70;;;;;;5108634;28;20177;-74
2022/07/30 04:45:19;;;;;;;7.95;6.35;;;14.80;90.20;;;;;;5058327;28;20064;-75
2022/07/30 04:47:45;;;;;;;9.68;5.68;;;14.90;90.10;;;;;;5108898;28;20051;-74
2022/07/30 04:50:12;;;;;;;10.57;7.90;;;15.00;90.30;;;;;;5091771;28;20450;-75
2022/07/30 04:52:38;;;;;;;11.50;7.82;;;15.00;90.30;;;;;;5108557;28;20048;-75
2022/07/30 04:55:06;;;;;;;12.38;7.82;;;15.00;90.30;;;;;;5091581;28;20174;-76
2022/07/30 04:57:34;;;;;;;10.00;7.95;;;15.00;90.60;;;;;;5108375;28;20400;-77
2022/07/30 05:00:00;;;;;;;9.27;5.13;;;15.00;90.50;;;;;;5075175;28;20098;-77
2022/07/30 05:02:29;;;;;;;11.82;8.10;;;15.00;90.60;;;;;;5074756;28;20071;-76
2022/07/30 05:04:57;;;;;;;12.20;7.40;;;15.10;90.60;;;;;;5108507;28;20392;-76
2022/07/30 05:07:24;;;;;;;10.57;6.38;;;15.20;90.70;;;;;;5091691;28;20047;-76
2022/07/30 05:09:50;;;;;;;10.82;6.47;;;15.40;90.50;;;;;;5108406;28;20089;-74
2022/07/30 05:12:16;;;;;;;11.70;8.43;;;15.50;90.40;;;;;;5108295;28;20036;-75
2022/07/30 05:14:42;;;;;;;10.55;7.65;;;15.70;90.30;;;;;;5108299;28;20043;-76
2022/07/30 05:17:08;;;;;;;11.50;6.88;;;15.80;91.10;;;;;;5108520;28;20480;-76
2022/07/30 05:19:33;;;;;;;12.25;7.38;;;15.90;90.70;;;;;;5108169;28;20090;-78
2022/07/30 05:21:59;;;;;;;13.50;7.63;;;16.00;90.60;;;;;;5074410;28;20090;-76
2022/07/30 05:24:25;;;;;;;10.43;6.50;;;16.10;90.50;;;;;;5074390;28;20048;-75
2022/07/30 05:26:51;;;;;;;11.65;7.20;;;16.20;90.70;;;;;;5074650;28;20076;-75
2022/07/30 05:29:17;;;;;;;13.63;7.68;;;16.30;90.70;;;;;;5108188;28;20050;-75
2022/07/30 05:31:42;;;;;;;10.35;6.63;;;16.40;90.60;;;;;;5107978;28;20052;-74
2022/07/30 05:34:08;;;;;;;9.80;7.55;;;16.50;90.70;;;;;;5108333;28;20097;-78
2022/07/30 05:36:34;;;;;;;11.90;7.28;;;16.50;90.60;;;;;;5108312;28;20392;-75
2022/07/30 05:38:59;;;;;;;13.27;6.68;;;16.60;91.00;;;;;;5074313;28;20506;-75
2022/07/30 05:41:29;;;;;;;15.48;7.20;;;16.70;90.90;;;;;;5077241;28;20048;-74
2022/07/30 05:43:55;;;;;;;13.77;6.78;;;16.80;90.80;;;;;;5078571;28;20085;-75
2022/07/30 05:46:20;;;;;;;12.10;7.30;;;16.90;90.60;;;;;;5077725;28;20036;-76
2022/07/30 05:48:46;;;;;;;14.50;7.05;;;16.90;90.50;;;;;;5111602;28;20044;-75
2022/07/30 05:51:12;;;;;;;10.32;6.15;;;17.00;90.50;;;;;;5111879;28;20055;-76
2022/07/30 05:53:37;;;;;;;15.77;7.32;;;17.00;90.60;;;;;;5111832;28;20067;-75
2022/07/30 05:56:03;;;;;;;11.32;6.47;;;17.20;90.60;;;;;;5060951;28;20036;-76
2022/07/30 05:58:29;;;;;;;14.57;7.88;;;17.20;90.80;;;;;;5077484;28;20070;-77
2022/07/30 06:00:55;;;;;;;15.45;7.68;;;17.30;90.80;;;;;;5077533;28;20042;-77
2022/07/30 06:03:20;;;;;;;12.00;7.63;;;17.40;91.00;;;;;;5077562;28;20083;-75
2022/07/30 06:05:46;;;;;;;12.32;7.95;;;17.50;90.90;;;;;;5077340;28;20081;-76
2022/07/30 06:08:12;;;;;;;12.77;8.13;;;17.50;90.80;;;;;;5060857;28;20036;-75
2022/07/30 06:10:37;;;;;;;14.55;8.05;;;17.50;90.80;;;;;;5094622;28;20040;-76
2022/07/30 06:13:03;;;;;;;17.98;9.20;;;17.60;90.70;;;;;;5111476;28;20468;-76
2022/07/30 06:15:29;;;;;;;13.00;8.30;;;17.70;90.60;;;;;;5111351;28;20089;-76
2022/07/30 06:17:54;;;;;;;16.10;7.72;;;17.80;90.70;;;;;;5077160;28;20054;-76
2022/07/30 06:20:20;;;;;;;11.40;8.35;;;17.90;90.40;;;;;;5094227;28;20040;-77
2022/07/30 06:22:46;;;;;;;11.43;6.57;;;17.90;90.20;;;;;;5077174;28;20392;-75
2022/07/30 06:25:12;;;;;;;13.05;7.70;;;18.00;90.00;;;;;;5110911;28;20032;-76
2022/07/30 06:27:38;;;;;;;12.73;7.25;;;18.10;89.70;;;;;;5110955;28;20085;-76
2022/07/30 06:30:07;;;;;;;11.85;7.18;;;18.20;89.20;;;;;;5079254;28;20032;-75
2022/07/30 06:32:33;;;;;;;20.10;7.63;;;18.30;88.20;;;;;;5114258;28;20047;-76
2022/07/30 06:34:58;;;;;;;14.40;7.53;;;18.30;88.20;;;;;;5114342;28;20034;-78
2022/07/30 06:37:24;;;;;;;8.85;6.78;;;18.40;87.70;;;;;;5115378;28;20071;-75
2022/07/30 06:39:50;;;;;;;8.82;7.05;;;18.40;87.60;;;;;;5113978;28;20062;-77
2022/07/30 06:42:16;;;;;;;12.65;8.23;;;18.40;87.40;;;;;;5114028;28;20118;-76
2022/07/30 06:44:41;;;;;;;10.95;7.18;;;18.40;87.00;;;;;;5113993;28;20035;-77
2022/07/30 06:47:07;;;;;;;9.70;7.25;;;18.30;87.00;;;;;;5113806;28;20097;-76
2022/07/30 06:49:34;;;;;;;14.77;8.45;;;18.40;87.00;;;;;;5113856;28;20084;-76
2022/07/30 06:52:00;;;;;;;11.18;7.40;;;18.40;87.00;;;;;;5063047;28;20043;-76
2022/07/30 06:54:27;;;;;;;14.27;7.35;;;18.50;87.10;;;;;;5113316;28;20059;-76
2022/07/30 06:56:53;;;;;;;10.80;6.88;;;18.50;87.00;;;;;;5079759;28;20043;-76
2022/07/30 06:59:18;;;;;;;8.98;7.00;;;18.60;86.50;;;;;;5113465;28;20044;-76
2022/07/30 07:01:44;;;;;;;10.18;6.80;;;18.70;86.20;;;;;;5113636;28;20063;-75
2022/07/30 07:04:10;;;;;;;10.65;6.00;;;18.80;85.60;;;;;;5063046;28;20127;-75
2022/07/30 07:06:36;;;;;;;13.88;5.88;;;18.90;85.00;;;;;;5113677;28;20095;-76
2022/07/30 07:09:02;;;;;;;8.95;6.15;;;19.10;84.60;;;;;;5113697;28;20105;-75
2022/07/30 07:11:27;;;;;;;8.82;5.32;;;19.10;84.10;;;;;;5096715;28;20044;-78
2022/07/30 07:13:53;;;;;;;9.30;5.53;;;19.20;82.40;;;;;;5113354;28;20557;-76
2022/07/30 07:16:21;;;;;;;9.10;4.93;;;19.30;81.40;;;;;;5113509;28;20310;-75
2022/07/30 07:18:47;;;;;;;12.23;5.85;;;19.20;81.10;;;;;;5113174;28;20043;-74
2022/07/30 07:21:14;;;;;;;13.98;6.22;;;19.30;81.10;;;;;;5079357;28;20046;-74
2022/07/30 07:23:40;;;;;;;9.43;4.93;;;19.40;81.00;;;;;;5079280;28;20067;-74
2022/07/30 07:26:05;;;;;;;10.63;5.65;;;19.30;80.70;;;;;;5113020;28;20039;-75
2022/07/30 07:28:31;;;;;;;10.25;5.53;;;19.30;80.70;;;;;;5113341;28;20051;-75
2022/07/30 07:30:57;;;;;;;10.52;6.05;;;19.30;81.10;;;;;;5112881;28;20051;-74
2022/07/30 07:33:22;;;;;;;8.82;5.40;;;19.40;81.30;;;;;;5113091;28;20402;-76
2022/07/30 07:35:48;;;;;;;10.18;5.40;;;19.40;81.20;;;;;;5113205;28;20065;-77
2022/07/30 07:38:14;;;;;;;12.52;4.72;;;19.30;80.70;;;;;;5095802;28;20450;-74
2022/07/30 07:40:39;;;;;;;6.93;4.65;;;19.30;80.40;;;;;;5112874;28;20047;-75
2022/07/30 07:43:05;;;;;;;10.93;5.20;;;19.20;80.20;;;;;;5112764;28;20045;-74
2022/07/30 07:45:31;;;;;;;5.63;4.43;;;19.20;79.40;;;;;;5095979;28;20036;-75
2022/07/30 07:47:57;;;;;;;8.80;4.95;;;19.20;79.00;;;;;;5079176;28;20040;-76
2022/07/30 07:50:23;;;;;;;8.25;5.40;;;19.10;79.00;;;;;;5112691;28;20097;-75
2022/07/30 07:52:48;;;;;;;9.52;4.85;;;19.10;79.20;;;;;;5095982;28;20048;-75
2022/07/30 07:55:14;;;;;;;5.90;4.20;;;19.20;79.40;;;;;;5112910;28;20043;-74
2022/07/30 07:57:40;;;;;;;6.53;4.78;;;19.40;78.40;;;;;;5112497;28;20067;-76
2022/07/30 08:00:08;;;;;;;10.10;4.68;;;19.60;77.50;;;;;;5112493;28;20043;-75
2022/07/30 08:02:33;;;;;;;8.30;4.97;;;19.70;77.40;;;;;;5112167;28;20078;-75
2022/07/30 08:04:59;;;;;;;6.95;4.18;;;19.60;77.10;;;;;;5078555;28;20031;-74
2022/07/30 08:07:25;;;;;;;9.13;4.63;;;19.60;77.10;;;;;;5112464;28;20088;-76
2022/07/30 08:09:50;;;;;;;7.45;4.25;;;19.60;76.80;;;;;;5112417;28;20040;-76
2022/07/30 08:12:16;;;;;;;6.25;4.38;;;19.70;76.20;;;;;;5112334;28;20131;-74
2022/07/30 08:14:42;;;;;;;6.68;4.10;;;19.90;75.60;;;;;;5078835;28;20092;-75
2022/07/30 08:17:08;;;;;;;4.97;3.70;;;20.10;75.50;;;;;;5112345;28;20523;-75
2022/07/30 08:19:34;;;;;;;6.93;4.03;;;20.20;74.90;;;;;;5112173;28;20071;-74
2022/07/30 08:21:59;;;;;;;9.30;4.97;;;20.40;74.30;;;;;;5078503;28;20038;-76
2022/07/30 08:24:25;;;;;;;7.20;4.53;;;20.30;74.00;;;;;;5112196;28;20093;-75
2022/07/30 08:26:51;;;;;;;7.25;4.43;;;20.40;74.20;;;;;;5112311;28;20050;-74
2022/07/30 08:29:17;;;;;;;9.15;4.50;;;20.40;74.20;;;;;;5112060;28;20055;-75
2022/07/30 08:31:42;;;;;;;6.30;4.28;;;20.60;73.80;;;;;;5078385;28;20056;-75
2022/07/30 08:34:08;;;;;;;10.95;4.07;;;20.60;73.10;;;;;;5112285;28;20032;-76
2022/07/30 08:36:34;;;;;;;7.85;5.07;;;20.60;73.10;;;;;;5094932;28;20039;-74
2022/07/30 08:38:59;;;;;;;11.10;4.18;;;20.60;73.00;;;;;;5078216;28;20046;-73
2022/07/30 08:41:26;;;;;;;5.32;3.95;;;20.60;72.80;;;;;;5112303;28;20055;-74
2022/07/30 08:43:54;;;;;;;10.07;4.88;;;20.70;72.50;;;;;;5094923;28;20044;-75
2022/07/30 08:46:23;;;;;;;6.30;3.42;;;20.80;72.30;;;;;;5078143;28;20071;-75
2022/07/30 08:48:51;;;;;;;9.88;4.30;;;20.90;71.50;;;;;;5095086;28;20491;-77
2022/07/30 08:51:18;;;;;;;7.72;3.65;;;20.90;70.90;;;;;;5111962;28;20097;-77
2022/07/30 08:53:45;;;;;;;7.53;5.03;;;21.10;69.80;;;;;;5094912;28;20043;-77
2022/07/30 08:56:11;;;;;;;11.45;4.72;;;21.10;69.60;;;;;;5094775;28;20043;-75
2022/07/30 08:58:37;;;;;;;8.45;4.80;;;21.20;69.90;;;;;;5111813;28;20132;-78
2022/07/30 09:01:05;;;;;;;9.15;5.00;;;21.40;70.20;;;;;;5111821;28;20047;-73
2022/07/30 09:03:31;;;;;;;7.90;4.63;;;21.40;70.10;;;;;;5094842;28;20039;-76
2022/07/30 09:05:58;;;;;;;6.65;4.03;;;21.30;70.10;;;;;;5077934;28;20032;-74
2022/07/30 09:08:24;;;;;;;9.13;4.80;;;21.30;69.90;;;;;;5111976;28;20165;-74
2022/07/30 09:10:50;;;;;;;8.75;3.78;;;21.40;69.80;;;;;;5111645;28;20079;-75
2022/07/30 09:13:43;;;;;;;9.02;4.20;;;21.50;69.20;;;;;;5111704;28;20036;-74
2022/07/30 09:16:38;;;;;;;9.98;5.53;;;21.50;68.30;;;;;;5094896;28;20083;-74
2022/07/30 09:19:15;;;;;;;6.45;4.22;;;21.60;68.20;;;;;;5077623;28;20055;-75
2022/07/30 09:21:41;;;;;;;8.32;4.60;;;21.50;68.50;;;;;;5115717;28;20472;-77
2022/07/30 09:24:09;;;;;;;6.72;5.00;;;21.50;68.20;;;;;;5115793;28;20074;-77
2022/07/30 09:26:58;;;;;;;10.40;4.40;;;21.70;67.40;;;;;;5098400;28;20044;-76
2022/07/30 09:29:26;;;;;;;8.68;4.40;;;21.70;66.90;;;;;;5115480;28;20053;-76
2022/07/30 09:31:58;;;;;;;7.13;3.38;;;21.90;66.50;;;;;;5064817;28;20051;-75
2022/07/30 09:34:33;;;;;;;8.00;3.42;;;21.70;67.00;;;;;;5115468;28;20047;-78
2022/07/30 09:37:02;;;;;;;6.00;4.13;;;21.60;67.10;;;;;;5098306;28;20491;-76
2022/07/30 09:39:33;;;;;;;5.45;4.10;;;21.60;67.40;;;;;;5115089;28;20071;-76
2022/07/30 09:42:00;;;;;;;6.35;4.15;;;21.70;66.70;;;;;;5097934;28;20044;-77
2022/07/30 09:44:28;;;;;;;5.75;3.33;;;21.90;66.10;;;;;;5115077;28;20537;-77
2022/07/30 09:46:55;;;;;;;6.25;3.15;;;22.00;65.80;;;;;;5098055;28;20479;-76
2022/07/30 09:49:28;;;;;;;7.35;3.40;;;22.10;65.20;;;;;;5115126;28;20047;-75
2022/07/30 09:51:54;;;;;;;5.90;3.22;;;22.00;65.40;;;;;;5098213;28;20387;-76
2022/07/30 09:54:21;;;;;;;6.72;4.00;;;22.00;65.10;;;;;;5081396;28;20032;-75
2022/07/30 09:56:46;;;;;;;6.40;3.30;;;22.10;65.30;;;;;;5080946;28;20122;-76
2022/07/30 09:59:29;;;;;;;10.10;3.80;;;22.20;65.50;;;;;;5097800;28;20127;-76
2022/07/30 10:01:56;;;;;;;6.88;3.45;;;22.20;64.50;;;;;;5097839;28;20039;-76
2022/07/30 10:04:27;;;;;;;7.20;3.35;;;22.20;64.70;;;;;;5080833;28;20040;-76
2022/07/30 10:06:53;;;;;;;6.13;3.33;;;22.20;65.30;;;;;;5114975;28;20043;-76
2022/07/30 10:09:30;;;;;;;8.63;3.53;;;22.40;65.40;;;;;;5114896;28;20506;-74
2022/07/30 10:12:01;;;;;;;5.30;3.13;;;22.60;64.30;;;;;;5114883;28;20040;-75
2022/07/30 10:14:33;;;;;;;5.95;3.53;;;22.70;63.70;;;;;;5080779;28;20118;-75
2022/07/30 10:17:00;;;;;;;5.35;3.05;;;22.90;63.10;;;;;;5097507;28;20402;-75
2022/07/30 10:19:26;;;;;;;3.63;2.50;;;22.90;63.00;;;;;;5080556;28;20122;-76
2022/07/30 10:21:56;;;;;;;4.97;2.70;;;23.10;62.20;;;;;;5114419;28;20035;-78
2022/07/30 10:24:22;;;;;;;5.47;2.97;;;23.20;61.00;;;;;;5097635;28;20043;-77
2022/07/30 10:26:49;;;;;;;9.77;3.58;;;23.20;61.10;;;;;;5096914;28;20032;-76
2022/07/30 10:29:16;;;;;;;9.02;3.90;;;23.30;61.80;;;;;;5097315;28;20552;-74
2022/07/30 10:31:43;;;;;;;5.85;3.15;;;23.40;61.90;;;;;;5093787;28;20056;-75
2022/07/30 10:34:10;;;;;;;5.50;3.00;;;23.40;61.00;;;;;;5110757;28;20055;-76
2022/07/30 10:36:39;;;;;;;5.55;3.28;;;23.50;60.50;;;;;;5076790;28;20070;-75
2022/07/30 10:39:07;;;;;;;6.82;3.00;;;23.60;61.10;;;;;;5110663;28;20044;-77
2022/07/30 10:42:18;;;;;;;6.32;3.08;;;23.70;60.70;;;;;;5110934;28;20044;-76
2022/07/30 10:45:00;;;;;;;6.25;2.95;;;23.70;59.80;;;;;;5110517;28;20123;-75
2022/07/30 10:47:27;;;;;;;6.10;3.38;;;23.70;59.70;;;;;;5110563;28;20373;-74
2022/07/30 10:50:08;;;;;;;6.53;3.70;;;23.60;60.00;;;;;;5060203;28;20093;-77
2022/07/30 10:52:50;;;;;;;5.50;3.63;;;23.60;59.80;;;;;;5076839;28;20542;-76
2022/07/30 10:55:21;;;;;;;6.25;3.35;;;23.60;59.50;;;;;;5110439;28;20054;-77
2022/07/30 10:58:00;;;;;;;5.13;2.80;;;23.50;59.70;;;;;;5076699;28;20080;-76
2022/07/30 11:00:27;;;;;;;5.68;3.55;;;23.60;59.50;;;;;;5110496;28;20098;-76
2022/07/30 11:03:12;;;;;;;4.40;2.80;;;23.60;59.30;;;;;;5110548;28;20483;-75
2022/07/30 11:05:37;;;;;;;2.92;2.63;;;23.60;59.20;;;;;;5110081;28;20040;-76
2022/07/30 11:08:33;;;;;;;5.40;2.90;;;23.60;59.40;;;;;;5076242;28;20123;-75
2022/07/30 11:11:00;;;;;;;6.30;3.00;;;23.60;58.60;;;;;;5110152;28;20071;-77
2022/07/30 11:13:52;;;;;;;5.35;3.40;;;23.60;59.10;;;;;;5110080;28;20507;-75
2022/07/30 11:16:23;;;;;;;5.85;2.92;;;23.70;58.60;;;;;;5092971;28;20039;-78
2022/07/30 11:19:03;;;;;;;3.92;2.30;;;23.70;57.50;;;;;;5109895;28;20127;-75
2022/07/30 11:21:29;;;;;;;7.53;2.70;;;23.70;57.20;;;;;;5109909;28;20044;-75
2022/07/30 11:23:55;;;;;;;5.85;2.28;;;23.70;57.10;;;;;;5109836;28;20040;-77
2022/07/30 11:26:40;;;;;;;6.43;3.00;;;23.70;57.60;;;;;;5109903;28;20094;-76
2022/07/30 11:29:07;;;;;;;4.68;2.40;;;23.80;56.80;;;;;;5110012;28;20127;-77
2022/07/30 11:31:35;;;;;;;3.97;1.90;;;23.80;55.60;;;;;;5109625;28;20056;-76
2022/07/30 11:34:24;;;;;;;3.72;2.10;;;24.00;55.70;;;;;;5110386;28;20074;-78
2022/07/30 11:37:11;;;;;;;4.53;1.60;;;24.10;55.30;;;;;;5110014;28;20052;-76
2022/07/30 11:39:52;;;;;;;3.65;2.50;;;24.10;54.60;;;;;;5109202;28;20048;-75
2022/07/30 11:42:36;;;;;;;6.68;2.10;;;24.00;55.10;;;;;;5109501;28;20036;-75
2022/07/30 11:45:17;;;;;;;5.88;2.05;;;24.10;55.50;;;;;;5109384;28;20069;-77
2022/07/30 11:47:47;;;;;;;5.22;2.47;;;24.20;55.70;;;;;;5109728;28;20512;-76
2022/07/30 11:50:23;;;;;;;4.43;2.28;;;24.30;55.80;;;;;;5109670;28;20043;-77
2022/07/30 11:52:51;;;;;;;5.43;1.95;;;24.50;54.00;;;;;;5109355;28;20092;-75
2022/07/30 11:55:25;;;;;;;2.50;1.67;;;24.60;52.50;;;;;;5109625;28;20221;-77
2022/07/30 11:57:52;;;;;;;3.08;1.60;;;24.50;52.40;;;;;;5075560;28;20121;-77
2022/07/30 12:00:18;;;;;;;5.00;1.50;;;24.50;53.10;;;;;;5109224;28;20032;-77
2022/07/30 12:02:47;;;;;;;3.33;1.80;;;24.40;52.90;;;;;;5109235;28;20495;-75
2022/07/30 12:05:13;;;;;;;3.65;1.70;;;24.50;52.30;;;;;;5109356;28;20040;-76
2022/07/30 12:07:38;;;;;;;3.15;1.85;;;24.60;51.60;;;;;;5109117;28;20028;-75
2022/07/30 12:10:30;;;;;;;4.38;1.88;;;24.80;51.30;;;;;;5109031;28;20040;-76
2022/07/30 12:13:26;;;;;;;4.38;1.88;;;24.80;50.70;;;;;;5089430;28;20051;-76
2022/07/30 12:15:52;;;;;;;2.88;1.67;;;24.80;52.20;;;;;;5062742;28;20392;-75
2022/07/30 12:18:28;;;;;;;2.22;1.50;;;24.60;53.00;;;;;;5109116;28;20036;-77
2022/07/30 12:21:10;;;;;;;5.45;2.38;;;24.70;53.20;;;;;;5108866;28;20043;-76
2022/07/30 12:23:37;;;;;;;4.53;1.98;;;24.60;52.60;;;;;;5108905;28;20169;-77
2022/07/30 12:26:03;;;;;;;3.97;1.55;;;24.60;51.90;;;;;;5075178;28;20526;-75
2022/07/30 12:28:34;;;;;;;2.45;1.50;;;24.70;51.80;;;;;;5108800;28;20133;-76
2022/07/30 12:31:03;;;;;;;4.25;2.15;;;24.80;51.00;;;;;;5108585;28;20088;-77
2022/07/30 12:33:29;;;;;;;3.80;1.73;;;24.80;52.20;;;;;;5108735;28;20567;-78
2022/07/30 12:35:59;;;;;;;3.58;2.03;;;24.80;50.80;;;;;;5074864;28;20048;-77
2022/07/30 12:38:27;;;;;;;3.75;1.85;;;24.70;51.00;;;;;;5108850;28;20095;-77
2022/07/30 12:41:04;;;;;;;3.67;1.50;;;24.70;51.70;;;;;;5075159;28;20369;-75
2022/07/30 12:43:52;;;;;;;3.33;1.45;;;24.70;50.00;;;;;;5108628;28;20036;-77
2022/07/30 12:46:20;;;;;;;6.03;1.88;;;24.80;50.10;;;;;;5108847;28;20083;-76
2022/07/30 12:49:01;;;;;;;3.47;1.60;;;24.90;50.30;;;;;;5109065;28;20043;-75
2022/07/30 12:51:31;;;;;;;2.33;1.88;;;24.90;50.60;;;;;;5112828;28;20043;-76
2022/07/30 12:53:59;;;;;;;5.85;2.25;;;24.80;51.30;;;;;;5113002;28;20589;-78